createdAt,value
2022-10-09T00:01:14.190Z,10.80
2022-10-09T00:03:42.596Z,9.93
2022-10-09T00:06:12.145Z,12.20
2022-10-09T00:08:40.058Z,6.43
2022-10-09T00:11:07.884Z,10.30
2022-10-09T00:13:35.039Z,8.00
2022-10-09T00:16:05.462Z,8.40
2022-10-09T00:18:32.085Z,11.57
2022-10-09T00:20:58.748Z,9.47
2022-10-09T00:23:25.593Z,15.07
2022-10-09T00:25:58.082Z,12.70
2022-10-09T00:28:26.551Z,14.77
2022-10-09T00:30:53.130Z,15.10
2022-10-09T00:33:20.314Z,13.67
2022-10-09T00:35:47.178Z,13.67
2022-10-09T00:38:14.093Z,21.47
2022-10-09T00:40:40.726Z,17.20
2022-10-09T00:43:17.709Z,25.67
2022-10-09T00:45:49.870Z,24.10
2022-10-09T00:48:17.900Z,17.80
2022-10-09T00:50:54.441Z,12.23
2022-10-09T00:53:24.410Z,14.33
2022-10-09T00:55:51.100Z,6.30
2022-10-09T00:58:17.923Z,8.17
2022-10-09T01:00:44.435Z,7.90
2022-10-09T01:03:11.106Z,15.03
2022-10-09T01:05:59.067Z,10.07
2022-10-09T01:08:31.588Z,8.60
2022-10-09T01:11:01.948Z,15.13
2022-10-09T01:13:39.360Z,14.63
2022-10-09T01:16:33.592Z,15.33
2022-10-09T01:19:12.283Z,15.50
2022-10-09T01:21:46.469Z,10.47
2022-10-09T01:24:28.401Z,13.60
2022-10-09T01:27:04.981Z,9.77
2022-10-09T01:29:36.534Z,5.60
2022-10-09T01:32:05.819Z,6.27
2022-10-09T01:34:33.910Z,10.53
2022-10-09T01:37:00.954Z,9.57
2022-10-09T01:39:29.562Z,6.83
2022-10-09T01:41:57.090Z,10.07
2022-10-09T01:44:29.636Z,7.80
2022-10-09T01:46:56.797Z,10.67
2022-10-09T01:49:36.077Z,7.90
2022-10-09T01:52:09.144Z,6.27
2022-10-09T01:54:50.902Z,7.53
2022-10-09T01:57:24.733Z,9.23
2022-10-09T01:59:52.927Z,8.93
2022-10-09T02:02:20.795Z,10.80
2022-10-09T02:04:49.476Z,8.27
2022-10-09T02:07:18.154Z,7.17
2022-10-09T02:09:45.975Z,6.93
2022-10-09T02:12:16.188Z,5.87
2022-10-09T02:14:43.029Z,9.80
2022-10-09T02:17:17.207Z,5.20
2022-10-09T02:20:14.022Z,6.60
2022-10-09T02:22:41.130Z,7.03
2022-10-09T02:25:08.038Z,8.13
2022-10-09T02:27:35.769Z,7.70
2022-10-09T02:30:03.853Z,8.43
2022-10-09T02:32:30.512Z,7.33
2022-10-09T02:34:56.954Z,7.07
2022-10-09T02:37:23.549Z,7.53
2022-10-09T02:39:50.235Z,8.13
2022-10-09T02:42:17.023Z,7.93
2022-10-09T02:44:43.562Z,7.97
2022-10-09T02:47:10.338Z,9.20
2022-10-09T02:49:36.925Z,8.07
2022-10-09T02:52:03.792Z,7.13
2022-10-09T02:54:30.262Z,6.43
2022-10-09T02:56:56.764Z,7.23
2022-10-09T02:59:23.269Z,6.87
2022-10-09T03:01:49.879Z,9.27
2022-10-09T03:04:16.411Z,9.03
2022-10-09T03:06:42.878Z,6.30
2022-10-09T03:09:09.389Z,6.63
2022-10-09T03:11:36.161Z,8.57
2022-10-09T03:14:02.757Z,7.47
2022-10-09T03:16:29.374Z,5.73
2022-10-09T03:18:55.994Z,5.83
2022-10-09T03:21:26.918Z,5.80
2022-10-09T03:23:54.747Z,7.47
2022-10-09T03:26:23.523Z,7.83
2022-10-09T03:28:51.789Z,5.97
2022-10-09T03:31:50.470Z,5.63
2022-10-09T03:34:07.832Z,7.13
2022-10-09T03:36:34.344Z,6.23
2022-10-09T03:39:00.785Z,5.73
2022-10-09T03:41:27.508Z,6.57
2022-10-09T03:43:53.965Z,6.23
2022-10-09T03:46:20.465Z,5.13
2022-10-09T03:48:46.941Z,5.20
2022-10-09T03:51:13.506Z,9.33
2022-10-09T03:53:40.295Z,6.83
2022-10-09T03:56:07.063Z,6.27
2022-10-09T03:58:33.981Z,7.87
2022-10-09T04:01:00.526Z,8.40
2022-10-09T04:03:27.563Z,6.60
2022-10-09T04:05:54.098Z,8.97
2022-10-09T04:08:20.791Z,10.30
2022-10-09T04:10:47.203Z,9.90
2022-10-09T04:13:13.731Z,8.00
2022-10-09T04:15:40.394Z,7.53
2022-10-09T04:18:06.911Z,5.27
2022-10-09T04:20:33.929Z,8.57
2022-10-09T04:23:00.489Z,7.03
2022-10-09T04:25:29.568Z,9.53
2022-10-09T04:27:57.057Z,9.63
2022-10-09T04:30:23.579Z,9.87
2022-10-09T04:32:50.502Z,6.03
2022-10-09T04:35:17.122Z,7.23
2022-10-09T04:37:43.682Z,8.03
2022-10-09T04:40:10.523Z,6.93
2022-10-09T04:42:37.063Z,7.10
2022-10-09T04:45:04.277Z,8.37
2022-10-09T04:47:31.032Z,6.67
2022-10-09T04:49:57.576Z,9.57
2022-10-09T04:52:24.256Z,4.93
2022-10-09T04:54:50.822Z,8.17
2022-10-09T04:57:17.346Z,8.50
2022-10-09T04:59:43.849Z,7.90
2022-10-09T05:02:10.580Z,8.17
2022-10-09T05:04:38.150Z,8.97
2022-10-09T05:07:04.849Z,11.37
2022-10-09T05:09:31.446Z,7.30
2022-10-09T05:11:57.849Z,4.90
2022-10-09T05:14:24.483Z,6.60
2022-10-09T05:17:13.057Z,6.47
2022-10-09T05:19:40.535Z,8.20
2022-10-09T05:22:07.037Z,9.70
2022-10-09T05:24:33.941Z,5.77
2022-10-09T05:27:00.538Z,5.17
2022-10-09T05:29:27.427Z,8.63
2022-10-09T05:31:53.950Z,5.40
2022-10-09T05:34:20.571Z,8.47
2022-10-09T05:36:47.015Z,7.87
2022-10-09T05:39:13.566Z,4.63
2022-10-09T05:41:40.308Z,6.70
2022-10-09T05:44:06.930Z,6.60
2022-10-09T05:46:33.775Z,6.73
2022-10-09T05:49:05.516Z,7.00
2022-10-09T05:51:37.321Z,7.83
2022-10-09T05:54:06.259Z,10.13
2022-10-09T05:56:35.380Z,8.93
2022-10-09T05:59:07.211Z,9.67
2022-10-09T06:01:40.419Z,8.63
2022-10-09T06:04:10.854Z,8.03
2022-10-09T06:06:39.556Z,10.53
2022-10-09T06:09:08.116Z,8.27
2022-10-09T06:11:37.459Z,8.67
2022-10-09T06:14:06.121Z,9.83
2022-10-09T06:16:35.261Z,8.63
2022-10-09T06:19:03.253Z,6.93
2022-10-09T06:21:30.398Z,7.23
2022-10-09T06:24:02.907Z,7.00
2022-10-09T06:26:30.446Z,7.70
2022-10-09T06:28:58.632Z,8.57
2022-10-09T06:31:27.751Z,7.77
2022-10-09T06:33:54.839Z,12.63
2022-10-09T06:36:24.170Z,9.07
2022-10-09T06:38:51.675Z,8.93
2022-10-09T06:41:23.992Z,11.77
2022-10-09T06:43:52.978Z,6.93
2022-10-09T06:46:20.562Z,7.60
2022-10-09T06:48:47.369Z,7.20
2022-10-09T06:51:16.702Z,8.30
2022-10-09T06:53:48.520Z,9.70
2022-10-09T06:56:16.958Z,7.37
2022-10-09T06:58:44.233Z,6.50
2022-10-09T07:01:16.334Z,6.23
2022-10-09T07:03:44.903Z,7.60
2022-10-09T07:06:14.144Z,6.60
2022-10-09T07:08:43.439Z,11.60
2022-10-09T07:11:14.093Z,7.83
2022-10-09T07:13:42.392Z,10.43
2022-10-09T07:16:10.524Z,7.47
2022-10-09T07:18:38.020Z,11.73
2022-10-09T07:21:07.879Z,10.93
2022-10-09T07:23:36.242Z,9.13
2022-10-09T07:26:10.787Z,6.40
2022-10-09T07:28:37.601Z,8.63
2022-10-09T07:31:05.170Z,10.47
2022-10-09T07:33:31.719Z,9.50
2022-10-09T07:35:59.811Z,9.47
2022-10-09T07:38:27.280Z,8.37
2022-10-09T07:40:54.584Z,9.40
2022-10-09T07:43:21.631Z,10.63
2022-10-09T07:45:48.175Z,11.67
2022-10-09T07:48:14.650Z,8.07
2022-10-09T07:50:41.177Z,9.03
2022-10-09T07:53:08.870Z,9.67
2022-10-09T07:55:36.349Z,9.17
2022-10-09T07:58:02.882Z,8.90
2022-10-09T08:00:29.430Z,10.37
2022-10-09T08:02:56.141Z,9.70
2022-10-09T08:05:22.633Z,10.50
2022-10-09T08:07:49.362Z,9.60
2022-10-09T08:10:15.958Z,11.80
2022-10-09T08:12:42.469Z,9.83
2022-10-09T08:15:09.483Z,8.57
2022-10-09T08:17:36.120Z,10.37
2022-10-09T08:20:02.851Z,11.30
2022-10-09T08:22:29.298Z,10.03
2022-10-09T08:24:55.765Z,12.60
2022-10-09T08:27:22.156Z,11.90
2022-10-09T08:29:48.658Z,11.00
2022-10-09T08:32:15.271Z,11.00
2022-10-09T08:34:41.715Z,10.37
2022-10-09T08:37:08.204Z,12.50
2022-10-09T08:39:35.077Z,11.63
2022-10-09T08:42:03.612Z,11.47
2022-10-09T08:44:40.507Z,12.63
2022-10-09T08:47:15.483Z,11.37
2022-10-09T08:49:45.201Z,10.13
2022-10-09T08:52:21.059Z,10.77
2022-10-09T08:54:47.685Z,12.93
2022-10-09T08:57:16.399Z,7.80
2022-10-09T08:59:44.583Z,10.70
2022-10-09T09:02:31.952Z,10.50
2022-10-09T09:05:19.236Z,7.63
2022-10-09T09:07:58.640Z,9.67
2022-10-09T09:10:31.306Z,11.47
2022-10-09T09:13:23.526Z,11.57
2022-10-09T09:16:04.715Z,7.23
2022-10-09T09:18:53.188Z,8.17
2022-10-09T09:21:29.181Z,11.33
2022-10-09T09:23:59.127Z,11.00
2022-10-09T09:26:27.404Z,9.57
2022-10-09T09:29:01.703Z,10.27
2022-10-09T09:31:35.537Z,10.83
2022-10-09T09:34:12.565Z,11.27
2022-10-09T09:36:44.635Z,9.73
2022-10-09T09:39:55.657Z,7.87
2022-10-09T09:42:13.225Z,12.60
2022-10-09T09:44:43.263Z,8.40
2022-10-09T09:47:24.230Z,9.50
2022-10-09T09:50:00.228Z,9.50
2022-10-09T09:52:32.043Z,11.83
2022-10-09T09:54:59.127Z,7.97
2022-10-09T09:57:41.336Z,7.40
2022-10-09T10:00:16.677Z,11.03
2022-10-09T10:02:43.167Z,8.83
2022-10-09T10:05:23.595Z,8.07
2022-10-09T10:07:51.563Z,8.33
2022-10-09T10:10:26.477Z,8.93
2022-10-09T10:12:53.366Z,10.33
2022-10-09T10:15:27.518Z,8.70
2022-10-09T10:18:12.487Z,7.27
2022-10-09T10:20:44.797Z,6.73
2022-10-09T10:23:41.829Z,5.60
2022-10-09T10:26:21.857Z,6.80
2022-10-09T10:29:09.446Z,7.90
2022-10-09T10:31:46.014Z,12.00
2022-10-09T10:34:22.959Z,6.97
2022-10-09T10:37:02.430Z,5.20
2022-10-09T10:40:21.328Z,7.30
2022-10-09T10:42:59.256Z,5.53
2022-10-09T10:45:55.687Z,9.23
2022-10-09T10:48:36.300Z,8.50
2022-10-09T10:51:21.496Z,6.40
2022-10-09T10:53:50.950Z,7.50
2022-10-09T10:56:35.494Z,8.30
2022-10-09T10:59:16.511Z,5.73
2022-10-09T11:01:42.978Z,7.67
2022-10-09T11:04:18.979Z,7.40
2022-10-09T11:06:48.241Z,8.93
2022-10-09T11:09:33.276Z,3.93
2022-10-09T11:12:46.778Z,8.10
2022-10-09T11:15:23.347Z,5.97
2022-10-09T11:18:09.247Z,6.33
2022-10-09T11:21:03.816Z,8.87
2022-10-09T11:23:49.056Z,6.50
2022-10-09T11:26:37.239Z,5.60
2022-10-09T11:29:15.147Z,6.17
2022-10-09T11:31:50.053Z,7.47
2022-10-09T11:34:22.512Z,6.37
2022-10-09T11:36:49.225Z,6.43
2022-10-09T11:39:24.932Z,3.80
2022-10-09T11:41:53.482Z,4.97
2022-10-09T11:44:46.317Z,5.00
2022-10-09T11:47:21.134Z,5.23
2022-10-09T11:50:37.331Z,4.77
2022-10-09T11:53:20.727Z,4.87
2022-10-09T11:55:48.448Z,4.67
2022-10-09T11:58:23.942Z,9.10
2022-10-09T12:00:54.132Z,5.67
2022-10-09T12:03:35.987Z,5.37
2022-10-09T12:06:04.827Z,3.97
2022-10-09T12:08:31.961Z,6.70
2022-10-09T12:11:09.387Z,4.10
2022-10-09T12:13:39.171Z,4.83
2022-10-09T12:16:08.137Z,6.67
2022-10-09T12:18:38.738Z,3.03
2022-10-09T12:21:08.574Z,8.13
2022-10-09T12:23:39.770Z,8.17
2022-10-09T12:26:12.388Z,6.70
2022-10-09T12:28:45.754Z,6.50
2022-10-09T12:31:38.623Z,5.33
2022-10-09T12:34:13.156Z,5.60
2022-10-09T12:36:39.654Z,5.00
2022-10-09T12:39:19.133Z,3.17
2022-10-09T12:41:48.109Z,6.73
2022-10-09T12:44:28.826Z,7.20
2022-10-09T12:46:59.774Z,5.60
2022-10-09T12:49:26.286Z,7.57
2022-10-09T12:51:57.986Z,5.10
2022-10-09T12:54:26.277Z,4.73
2022-10-09T12:56:55.247Z,5.30
2022-10-09T12:59:23.089Z,5.73
2022-10-09T13:01:55.498Z,6.63
2022-10-09T13:04:32.882Z,5.03
2022-10-09T13:07:08.118Z,5.40
2022-10-09T13:09:39.222Z,6.77
2022-10-09T13:12:09.134Z,5.53
2022-10-09T13:14:41.530Z,5.23
2022-10-09T13:17:22.445Z,6.07
2022-10-09T13:19:54.035Z,6.53
2022-10-09T13:22:23.954Z,6.07
2022-10-09T13:24:53.282Z,4.10
2022-10-09T13:27:29.189Z,6.03
2022-10-09T13:29:56.674Z,5.73
2022-10-09T13:32:24.312Z,4.37
2022-10-09T13:34:54.997Z,6.73
2022-10-09T13:37:23.962Z,3.13
2022-10-09T13:39:55.016Z,4.53
2022-10-09T13:42:23.884Z,7.60
2022-10-09T13:44:50.412Z,6.40
2022-10-09T13:47:19.624Z,6.13
2022-10-09T13:49:50.305Z,6.37
2022-10-09T13:52:16.806Z,5.13
2022-10-09T13:54:43.281Z,5.13
2022-10-09T13:57:09.853Z,6.10
2022-10-09T13:59:37.092Z,9.50
2022-10-09T14:02:03.925Z,5.53
2022-10-09T14:04:30.653Z,6.37
2022-10-09T14:06:57.352Z,4.77
2022-10-09T14:09:24.123Z,7.50
2022-10-09T14:11:50.629Z,5.67
2022-10-09T14:14:17.166Z,5.57
2022-10-09T14:16:43.749Z,4.30
2022-10-09T14:19:10.907Z,3.80
2022-10-09T14:21:37.450Z,3.00
2022-10-09T14:24:04.706Z,4.13
2022-10-09T14:26:31.304Z,8.40
2022-10-09T14:29:03.215Z,4.57
2022-10-09T14:31:30.157Z,4.37
2022-10-09T14:33:58.870Z,3.67
2022-10-09T14:36:26.342Z,3.20
2022-10-09T14:38:53.002Z,4.57
2022-10-09T14:41:20.030Z,4.63
2022-10-09T14:43:47.692Z,4.87
2022-10-09T14:46:19.632Z,4.73
2022-10-09T14:48:48.761Z,4.40
2022-10-09T14:51:17.807Z,3.63
2022-10-09T14:53:44.927Z,4.97
2022-10-09T14:56:17.565Z,5.57
2022-10-09T14:58:44.828Z,4.97
2022-10-09T15:01:17.039Z,2.93
2022-10-09T15:03:45.903Z,5.17
2022-10-09T15:06:13.386Z,5.10
2022-10-09T15:08:42.009Z,5.03
2022-10-09T15:11:12.020Z,5.73
2022-10-09T15:13:39.199Z,2.83
2022-10-09T15:16:09.206Z,2.63
2022-10-09T15:18:36.368Z,5.77
2022-10-09T15:21:04.125Z,2.90
2022-10-09T15:23:30.977Z,3.37
2022-10-09T15:25:58.921Z,5.87
2022-10-09T15:28:25.394Z,3.30
2022-10-09T15:30:57.559Z,6.03
2022-10-09T15:33:25.025Z,5.50
2022-10-09T15:35:53.025Z,4.63
2022-10-09T15:38:22.792Z,4.37
2022-10-09T15:40:52.169Z,2.87
2022-10-09T15:43:21.314Z,3.77
2022-10-09T15:45:48.608Z,5.83
2022-10-09T15:48:25.024Z,5.63
2022-10-09T15:50:53.606Z,4.03
2022-10-09T15:53:23.058Z,4.00
2022-10-09T15:55:52.106Z,5.53
2022-10-09T15:58:19.038Z,4.97
2022-10-09T16:00:48.681Z,2.97
2022-10-09T16:03:16.739Z,6.23
2022-10-09T16:05:47.662Z,3.73
2022-10-09T16:08:15.457Z,3.83
2022-10-09T16:10:48.430Z,5.93
2022-10-09T16:13:15.887Z,6.37
2022-10-09T16:15:43.615Z,6.10
2022-10-09T16:18:11.050Z,8.60
2022-10-09T16:20:39.067Z,5.90
2022-10-09T16:23:06.441Z,5.37
2022-10-09T16:25:33.253Z,4.60
2022-10-09T16:28:00.110Z,7.23
2022-10-09T16:30:27.559Z,8.00
2022-10-09T16:32:54.353Z,10.00
2022-10-09T16:35:22.618Z,6.20
2022-10-09T16:37:51.796Z,8.10
2022-10-09T16:40:18.295Z,8.07
2022-10-09T16:42:44.755Z,7.63
2022-10-09T16:45:11.220Z,6.17
2022-10-09T16:47:37.860Z,7.60
2022-10-09T16:50:05.468Z,6.53
2022-10-09T16:52:32.026Z,10.20
2022-10-09T16:55:00.611Z,5.50
2022-10-09T16:57:28.199Z,10.93
2022-10-09T16:59:54.742Z,5.60
2022-10-09T17:02:21.178Z,10.57
2022-10-09T17:04:47.877Z,7.50
2022-10-09T17:07:14.915Z,7.13
2022-10-09T17:09:41.435Z,7.97
2022-10-09T17:12:10.078Z,8.90
2022-10-09T17:14:37.284Z,9.63
2022-10-09T17:17:05.444Z,12.10
2022-10-09T17:19:32.497Z,11.53
2022-10-09T17:22:00.699Z,9.47
2022-10-09T17:24:28.599Z,13.00
2022-10-09T17:26:55.607Z,9.83
2022-10-09T17:29:23.262Z,13.27
2022-10-09T17:31:49.916Z,13.27
2022-10-09T17:34:16.931Z,11.73
2022-10-09T17:36:44.762Z,8.63
2022-10-09T17:39:14.475Z,10.73
2022-10-09T17:41:41.227Z,9.63
2022-10-09T17:44:09.778Z,8.80
2022-10-09T17:46:36.513Z,6.00
2022-10-09T17:49:04.165Z,5.40
2022-10-09T17:51:36.815Z,8.43
2022-10-09T17:54:16.871Z,8.10
2022-10-09T17:56:44.001Z,12.80
2022-10-09T17:59:11.387Z,8.10
2022-10-09T18:01:38.436Z,6.63
2022-10-09T18:04:05.807Z,9.13
2022-10-09T18:06:34.506Z,10.53
2022-10-09T18:09:04.560Z,8.67
2022-10-09T18:11:31.078Z,12.23
2022-10-09T18:13:58.025Z,11.60
2022-10-09T18:16:36.757Z,9.70
2022-10-09T18:19:13.053Z,7.90
2022-10-09T18:21:43.046Z,10.60
2022-10-09T18:24:10.150Z,5.63
2022-10-09T18:26:36.715Z,8.60
2022-10-09T18:29:04.197Z,11.00
2022-10-09T18:31:31.133Z,6.60
2022-10-09T18:33:59.323Z,8.23
2022-10-09T18:36:31.260Z,10.57
2022-10-09T18:39:07.214Z,7.27
2022-10-09T18:41:35.579Z,12.90
2022-10-09T18:44:04.619Z,6.37
2022-10-09T18:46:36.084Z,7.47
2022-10-09T18:49:06.660Z,5.80
2022-10-09T18:51:37.861Z,7.80
2022-10-09T18:54:06.573Z,8.80
2022-10-09T18:56:34.761Z,6.77
2022-10-09T18:59:07.138Z,6.70
2022-10-09T19:01:33.921Z,8.60
2022-10-09T19:04:00.527Z,7.63
2022-10-09T19:06:27.378Z,8.00
2022-10-09T19:08:57.709Z,5.93
2022-10-09T19:11:24.298Z,8.30
2022-10-09T19:13:50.859Z,8.20
2022-10-09T19:16:17.293Z,8.70
2022-10-09T19:18:43.781Z,7.93
2022-10-09T19:21:14.642Z,9.37
2022-10-09T19:23:42.135Z,7.23
2022-10-09T19:26:08.623Z,7.90
2022-10-09T19:28:38.257Z,8.20
2022-10-09T19:31:09.482Z,11.77
2022-10-09T19:33:38.035Z,10.33
2022-10-09T19:36:05.611Z,12.57
2022-10-09T19:38:32.892Z,8.57
2022-10-09T19:41:08.941Z,9.63
2022-10-09T19:43:36.129Z,6.47
2022-10-09T19:46:17.281Z,9.60
2022-10-09T19:48:44.579Z,10.60
2022-10-09T19:51:14.377Z,7.13
2022-10-09T19:53:42.270Z,9.73
2022-10-09T19:56:15.046Z,9.43
2022-10-09T19:58:43.677Z,9.53
2022-10-09T20:01:11.795Z,8.77
2022-10-09T20:03:39.770Z,10.50
2022-10-09T20:06:08.483Z,11.07
2022-10-09T20:08:36.737Z,10.20
2022-10-09T20:11:05.813Z,7.50
2022-10-09T20:13:34.313Z,9.43
2022-10-09T20:16:02.216Z,6.70
2022-10-09T20:18:28.886Z,7.03
2022-10-09T20:20:55.765Z,9.20
2022-10-09T20:23:22.647Z,8.30
2022-10-09T20:25:58.863Z,7.50
2022-10-09T20:28:25.589Z,6.33
2022-10-09T20:31:00.224Z,6.77
2022-10-09T20:33:28.765Z,9.63
2022-10-09T20:35:55.282Z,11.13
2022-10-09T20:38:25.572Z,8.63
2022-10-09T20:40:52.598Z,6.63
2022-10-09T20:43:19.146Z,7.83
2022-10-09T20:45:46.097Z,7.07
2022-10-09T20:48:12.675Z,6.97
2022-10-09T20:50:40.920Z,7.37
2022-10-09T20:53:11.853Z,6.07
2022-10-09T20:55:38.433Z,7.67
2022-10-09T20:58:05.340Z,7.80
2022-10-09T21:00:31.892Z,4.40
2022-10-09T21:02:58.462Z,4.43
2022-10-09T21:05:25.164Z,6.33
2022-10-09T21:07:51.663Z,4.97
2022-10-09T21:10:18.204Z,7.93
2022-10-09T21:12:44.673Z,6.20
2022-10-09T21:15:11.131Z,6.87
2022-10-09T21:17:37.577Z,5.47
2022-10-09T21:20:04.498Z,8.67
2022-10-09T21:22:30.991Z,4.10
2022-10-09T21:24:57.452Z,6.00
2022-10-09T21:27:23.989Z,5.70
2022-10-09T21:29:50.482Z,6.17
2022-10-09T21:32:16.999Z,7.73
2022-10-09T21:34:43.487Z,5.43
2022-10-09T21:37:22.142Z,4.27
2022-10-09T21:39:49.157Z,7.30
2022-10-09T21:42:15.554Z,5.97
2022-10-09T21:44:42.019Z,4.97
2022-10-09T21:47:18.490Z,4.10
2022-10-09T21:49:45.035Z,5.57
2022-10-09T21:52:11.437Z,5.27
2022-10-09T21:54:38.093Z,4.70
2022-10-09T21:57:04.655Z,5.10
2022-10-09T21:59:31.207Z,7.33
2022-10-09T22:01:57.632Z,4.23
2022-10-09T22:04:24.179Z,6.57
2022-10-09T22:06:50.638Z,5.30
2022-10-09T22:09:20.337Z,4.43
2022-10-09T22:11:47.032Z,4.17
2022-10-09T22:14:13.568Z,5.43
2022-10-09T22:16:40.079Z,8.93
2022-10-09T22:19:06.782Z,5.27
2022-10-09T22:21:33.595Z,4.70
2022-10-09T22:24:01.872Z,7.17
2022-10-09T22:26:28.296Z,4.00
2022-10-09T22:28:54.824Z,5.30
2022-10-09T22:31:24.792Z,7.00
2022-10-09T22:33:56.503Z,6.53
2022-10-09T22:36:27.196Z,6.93
2022-10-09T22:38:59.604Z,6.47
2022-10-09T22:41:28.057Z,5.97
2022-10-09T22:43:56.897Z,6.87
2022-10-09T22:46:26.237Z,6.20
2022-10-09T22:48:52.998Z,5.03
2022-10-09T22:51:21.581Z,3.80
2022-10-09T22:53:48.607Z,7.10
2022-10-09T22:56:18.786Z,4.83
2022-10-09T22:58:46.593Z,5.37
2022-10-09T23:01:17.302Z,5.10
2022-10-09T23:03:44.187Z,6.73
2022-10-09T23:06:13.452Z,6.70
2022-10-09T23:08:42.573Z,5.47
2022-10-09T23:11:09.651Z,6.03
2022-10-09T23:13:37.320Z,7.20
2022-10-09T23:16:05.617Z,11.53
2022-10-09T23:18:33.054Z,5.87
2022-10-09T23:21:03.617Z,4.93
2022-10-09T23:23:31.245Z,3.13
2022-10-09T23:25:57.703Z,5.07
2022-10-09T23:28:26.448Z,4.43
2022-10-09T23:30:53.171Z,5.97
2022-10-09T23:33:19.729Z,6.33
2022-10-09T23:35:46.186Z,5.23
2022-10-09T23:38:12.796Z,4.93
2022-10-09T23:40:39.269Z,9.50
2022-10-09T23:43:05.884Z,6.90
2022-10-09T23:45:32.298Z,5.17
2022-10-09T23:47:58.759Z,5.57
2022-10-09T23:50:25.495Z,5.20
2022-10-09T23:52:52.407Z,5.93
2022-10-09T23:55:19.056Z,3.30
2022-10-09T23:57:45.528Z,8.47
